createdAt,value
2019-03-11T00:00:04.137Z,26.07
2019-03-11T00:05:59.150Z,28.71
2019-03-11T00:11:54.149Z,25.06
2019-03-11T00:17:49.161Z,26
2019-03-11T00:23:44.150Z,26.75
2019-03-11T00:29:39.171Z,26.19
2019-03-11T00:35:34.195Z,24.91
2019-03-11T00:41:29.187Z,31.28
2019-03-11T00:47:24.235Z,23.3
2019-03-11T00:53:19.204Z,27.37
2019-03-11T00:59:14.179Z,26.88
2019-03-11T01:05:09.214Z,26.26
2019-03-11T01:11:04.252Z,21.96
2019-03-11T01:16:59.214Z,21.59
2019-03-11T01:22:54.208Z,23.87
2019-03-11T01:28:49.274Z,27.97
2019-03-11T01:34:44.226Z,20.44
2019-03-11T01:40:39.241Z,20.74
2019-03-11T01:46:34.229Z,20.7
2019-03-11T01:52:29.225Z,20.74
2019-03-11T01:58:24.282Z,16.12
2019-03-11T02:04:19.293Z,19.79
2019-03-11T02:10:14.263Z,16.9
2019-03-11T02:16:09.244Z,21.68
2019-03-11T02:22:04.246Z,17.27
2019-03-11T02:27:59.276Z,20.44
2019-03-11T02:33:54.343Z,20
2019-03-11T02:39:49.264Z,17.13
2019-03-11T02:45:44.328Z,21.06
2019-03-11T02:51:39.286Z,18.44
2019-03-11T02:57:34.313Z,16.94
2019-03-11T03:03:29.295Z,21.97
2019-03-11T03:09:24.300Z,13.11
2019-03-11T03:15:19.322Z,17.01
2019-03-11T03:21:14.304Z,14.54
2019-03-11T03:27:09.364Z,17.99
2019-03-11T03:33:04.476Z,14.92
2019-03-11T03:38:59.322Z,16.91
2019-03-11T03:44:54.351Z,17.6
2019-03-11T03:50:49.337Z,17.34
2019-03-11T03:56:44.352Z,17.99
2019-03-11T04:02:39.350Z,13.86
2019-03-11T04:08:34.366Z,18.73
2019-03-11T04:14:29.379Z,12.33
2019-03-11T04:20:24.450Z,14.27
2019-03-11T04:26:19.371Z,14.34
2019-03-11T04:32:14.366Z,13.93
2019-03-11T04:38:09.408Z,14.98
2019-03-11T04:44:06.605Z,12.74
2019-03-11T04:50:00.319Z,11.87
2019-03-11T04:55:54.409Z,14.06
2019-03-11T05:01:49.418Z,18.07
2019-03-11T05:07:44.407Z,17.01
2019-03-11T05:13:39.434Z,15.2
2019-03-11T05:19:34.418Z,16.99
2019-03-11T05:25:29.424Z,11.39
2019-03-11T05:31:24.441Z,16.07
2019-03-11T05:37:19.474Z,12.68
2019-03-11T05:43:14.436Z,13.82
2019-03-11T05:49:09.448Z,12.8
2019-03-11T05:55:04.452Z,12.6
2019-03-11T06:00:59.467Z,12.28
2019-03-11T06:06:54.459Z,13.43
2019-03-11T06:12:49.457Z,14.14
2019-03-11T06:18:44.711Z,14.02
2019-03-11T06:24:39.473Z,16.78
2019-03-11T06:30:34.489Z,17.93
2019-03-11T06:36:29.474Z,15.09
2019-03-11T06:42:24.485Z,15.84
2019-03-11T06:48:19.499Z,16.5
2019-03-11T06:54:14.537Z,15.47
2019-03-11T07:00:09.524Z,13.61
2019-03-11T07:06:04.572Z,15.05
2019-03-11T07:11:59.523Z,15.71
2019-03-11T07:17:54.540Z,17.74
2019-03-11T07:23:49.508Z,15.31
2019-03-11T07:29:44.572Z,17.76
2019-03-11T07:35:39.546Z,14.16
2019-03-11T07:41:34.577Z,21.25
2019-03-11T07:47:29.596Z,18.82
2019-03-11T07:53:24.646Z,18.96
2019-03-11T07:59:19.563Z,15.53
2019-03-11T08:05:14.570Z,22.29
2019-03-11T08:11:09.558Z,15.9
2019-03-11T08:17:04.567Z,16.05
2019-03-11T08:22:59.586Z,26.8
2019-03-11T08:28:54.607Z,18.8
2019-03-11T08:34:49.644Z,18.57
2019-03-11T08:40:44.617Z,19.3
2019-03-11T08:46:39.650Z,22.32
2019-03-11T08:52:34.611Z,20.91
2019-03-11T08:58:29.618Z,16.29
2019-03-11T09:04:24.636Z,14.04
2019-03-11T09:10:19.618Z,16.27
2019-03-11T09:16:14.638Z,16.99
2019-03-11T09:22:09.646Z,12.53
2019-03-11T09:28:04.641Z,15.45
2019-03-11T09:33:59.633Z,13.54
2019-03-11T09:39:54.650Z,18.33
2019-03-11T09:45:49.648Z,18.12
2019-03-11T09:51:44.646Z,10.46
2019-03-11T09:57:39.650Z,21.43
2019-03-11T10:03:34.673Z,17.97
2019-03-11T10:09:29.655Z,16.11
2019-03-11T10:15:24.693Z,15.8
2019-03-11T10:21:19.744Z,11.73
2019-03-11T10:27:14.703Z,7.43
2019-03-11T10:33:09.694Z,9.97
2019-03-11T10:39:04.779Z,18.55
2019-03-11T10:44:59.738Z,14.07
2019-03-11T10:50:54.780Z,13.23
2019-03-11T10:56:49.730Z,16.25
2019-03-11T11:02:44.776Z,12.99
2019-03-11T11:08:39.760Z,12.22
2019-03-11T11:14:34.764Z,13.51
2019-03-11T11:20:29.732Z,14.98
2019-03-11T11:26:24.749Z,15.67
2019-03-11T11:32:19.827Z,12.75
2019-03-11T11:38:14.777Z,13.45
2019-03-11T11:44:09.810Z,13.61
2019-03-11T11:50:04.779Z,16.54
2019-03-11T11:55:59.804Z,11.04
2019-03-11T12:02:03.160Z,17.23
2019-03-11T12:07:49.795Z,13.6
2019-03-11T12:13:44.780Z,10.26
2019-03-11T12:19:39.812Z,12.7
2019-03-11T12:25:34.798Z,8.5
2019-03-11T12:31:29.836Z,12.1
2019-03-11T12:37:24.892Z,13.88
2019-03-11T12:43:19.846Z,10.87
2019-03-11T12:49:14.839Z,9.62
2019-03-11T12:55:09.840Z,8.92
2019-03-11T13:01:04.887Z,9.96
2019-03-11T13:06:59.855Z,9.74
2019-03-11T13:12:54.839Z,9.62
2019-03-11T13:18:49.863Z,10.44
2019-03-11T13:24:44.890Z,10.33
2019-03-11T13:30:39.858Z,8.4
2019-03-11T13:36:34.883Z,10.46
2019-03-11T13:42:29.860Z,12.63
2019-03-11T13:48:24.886Z,9.46
2019-03-11T13:54:19.895Z,10.81
2019-03-11T14:00:14.899Z,6.89
2019-03-11T14:06:09.908Z,6.77
2019-03-11T14:12:04.907Z,3.27
2019-03-11T14:17:59.949Z,11.77
2019-03-11T14:23:54.912Z,3.1
2019-03-11T14:29:49.919Z,4.23
2019-03-11T14:35:44.921Z,1.51
2019-03-11T14:41:39.921Z,2.4
2019-03-11T14:47:34.941Z,3.26
2019-03-11T14:53:29.953Z,2.78
2019-03-11T14:59:24.968Z,1.66
2019-03-11T15:05:19.947Z,2.55
2019-03-11T15:11:14.955Z,2.16
2019-03-11T15:17:09.968Z,2.08
2019-03-11T15:23:07.792Z,1.8
2019-03-11T15:28:59.969Z,2.58
2019-03-11T15:34:54.990Z,6.35
2019-03-11T15:40:50.022Z,9.81
2019-03-11T15:46:45.030Z,5.97
2019-03-11T15:52:51.131Z,2.1
2019-03-11T15:58:34.979Z,1.12
2019-03-11T16:04:30.030Z,1.23
2019-03-11T16:10:25.014Z,1.46
2019-03-11T16:16:20.007Z,1.51
2019-03-11T16:22:22.640Z,3.87
2019-03-11T16:28:10.042Z,1.16
2019-03-11T16:34:05.088Z,3.46
2019-03-11T16:40:00.037Z,1.15
2019-03-11T16:45:55.063Z,0.75
2019-03-11T16:51:50.084Z,3.07
2019-03-11T16:57:45.109Z,1.44
2019-03-11T17:03:40.144Z,0.82
2019-03-11T17:09:35.093Z,0.75
2019-03-11T17:15:30.129Z,0.92
2019-03-11T17:21:25.073Z,2.44
2019-03-11T17:27:20.107Z,3.18
2019-03-11T17:33:15.102Z,3.21
2019-03-11T17:39:10.124Z,1.08
2019-03-11T17:45:05.125Z,1.34
2019-03-11T17:51:00.100Z,3.44
2019-03-11T17:56:55.122Z,1.65
2019-03-11T18:02:50.119Z,1.47
2019-03-11T18:08:45.109Z,2.55
2019-03-11T18:14:40.131Z,2.08
2019-03-11T18:20:35.170Z,3.74
2019-03-11T18:26:30.144Z,1.71
2019-03-11T18:32:25.132Z,3
2019-03-11T18:38:20.149Z,3.96
2019-03-11T18:44:15.220Z,2.92
2019-03-11T18:50:10.202Z,2.57
2019-03-11T18:56:05.243Z,2.85
2019-03-11T19:02:00.187Z,1.57
2019-03-11T19:07:55.529Z,3.95
2019-03-11T19:13:50.226Z,2.19
2019-03-11T19:19:46.313Z,1.38
2019-03-11T19:25:41.618Z,3.66
2019-03-11T19:31:35.266Z,3.67
2019-03-11T19:37:30.205Z,1.13
2019-03-11T19:43:25.253Z,3.46
2019-03-11T19:49:20.225Z,1.73
2019-03-11T19:55:15.238Z,2.16
2019-03-11T20:01:10.244Z,2.34
2019-03-11T20:07:05.323Z,3.19
2019-03-11T20:13:00.413Z,2.86
2019-03-11T20:18:55.276Z,2
2019-03-11T20:24:50.238Z,5.04
2019-03-11T20:30:45.594Z,2
2019-03-11T20:36:40.372Z,4.4
2019-03-11T20:42:35.274Z,7.11
2019-03-11T20:48:30.314Z,1.79
2019-03-11T20:54:25.386Z,1.94
2019-03-11T21:00:21.600Z,3.18
2019-03-11T21:06:15.269Z,2.55
2019-03-11T21:12:10.328Z,1.54
2019-03-11T21:18:05.359Z,1.5
2019-03-11T21:24:02.162Z,2.53
2019-03-11T21:29:55.404Z,4.38
2019-03-11T21:35:50.535Z,1.22
2019-03-11T21:41:45.443Z,1.23
2019-03-11T21:47:40.308Z,1.61
2019-03-11T21:53:35.388Z,1.85
2019-03-11T21:59:30.414Z,4.76
2019-03-11T22:05:25.387Z,1.27
2019-03-11T22:11:20.352Z,1.04
2019-03-11T22:17:15.351Z,1.53
2019-03-11T22:23:10.356Z,0.97
2019-03-11T22:29:05.399Z,0.8
2019-03-11T22:35:11.844Z,1.59
2019-03-11T22:40:55.356Z,1.93
2019-03-11T22:46:50.998Z,0.92
2019-03-11T22:52:45.462Z,1.51
2019-03-11T22:58:40.384Z,1.13
2019-03-11T23:04:35.372Z,1.33
2019-03-11T23:10:30.394Z,2.7
2019-03-11T23:16:25.395Z,1.69
2019-03-11T23:22:20.423Z,1.22
2019-03-11T23:28:15.394Z,1.38
2019-03-11T23:34:10.419Z,1.25
2019-03-11T23:40:05.453Z,1.21
2019-03-11T23:46:00.429Z,1.82
2019-03-11T23:51:55.450Z,1.32
2019-03-11T23:57:50.475Z,1.27
